NCAR-RAP Real-Time Weather Data

Output produced by METARs form (20 February 2019  18:20 UTC)
found at http://weather.rap.ucar.edu/surface/
 
RJFU 201200Z 01008KT 9999 FEW030 BKN120 08/03 Q1023
RJFU 201100Z 01009KT 9999 FEW030 BKN110 BKN180 09/04 Q1023
RJFU 201000Z 32010KT 9999 FEW030 BKN160 BKN/// 09/04 Q1022
RJFU 200900Z 31010KT 9999 FEW030 BKN160 09/03 Q1022
RJFU 200800Z 30010KT 9999 FEW030 10/03 Q1022
RJFU 200700Z 31012KT 9999 FEW030 SCT/// 11/03 Q1022
RJFU 200600Z 30012KT 9999 FEW025 BKN030 10/04 Q1023
RJFU 200500Z 33010KT 9999 FEW025 BKN030 10/04 Q1022
RJFU 200400Z 31011KT 9999 FEW025 BKN030 11/04 Q1022
RJFU 200300Z 31013KT 9999 FEW025 BKN030 10/04 Q1023
RJFU 200200Z 30013KT 9999 FEW025 BKN030 10/04 Q1023
RJFU 200100Z 30010KT 9999 FEW025 BKN030 10/05 Q1023
RJFU 200000Z 32012KT 9999 FEW025 BKN035 10/04 Q1022
RJFU 192300Z 33011KT 9999 FEW025 BKN035 BKN120 10/06 Q1021
RJFU 192200Z 33011KT 9999 FEW025 SCT035 09/06 Q1021
RJFU 192110Z 30010KT 9999 FEW025 SCT035 10/06 Q1020 RMK 1CU025 3CU035 A3013
RJFU 191200Z 28004KT 220V320 9999 SCT020 BKN025 13/11 Q1018
RJFU 191100Z 28005KT 9999 FEW020 BKN035 13/11 Q1017
RJFU 191000Z 29007KT 9999 FEW020 BKN035 13/11 Q1016
RJFU 190900Z 34005KT 9999 FEW015 SCT025 14/12 Q1015
RJFU 190800Z 34008KT 9999 BKN020 BKN025 15/13 Q1015
RJFU 190700Z 26006KT 190V330 9999 FEW020 SCT030 17/13 Q1014
RJFU 190600Z 25010KT 9999 FEW010 SCT015 18/14 Q1013
RJFU 190500Z 25014KT 9999 FEW006 BKN010 BKN015 16/14 Q1013
RJFU 190400Z 23021KT 9999 -SHRA FEW007 BKN010 BKN015 17/15 Q1012
RJFU 190314Z 23019G30KT 9999 -SHRA FEW007 BKN010 BKN015 18/16 Q1013 RMK 1ST007 5CU010 6CU015 A2992
RJFU 190300Z 22014KT 9999 VCSH FEW007 BKN010 BKN020 18/17 Q1012
RJFU 190248Z 23015KT 9999 -SHRA FEW007 BKN010 BKN020 18/17 Q1012 RMK 1ST007 6CU010 7CU020 A2991
RJFU 190241Z 23018KT 8000 R32/1400VP1800D SHRA FEW007 BKN010 BKN020 18/17 Q1013 RMK 1ST007 6CU010 7CU020 A2992
RJFU 190237Z 23018KT 6000 +SHRA FEW007 BKN010 BKN020 18/17 Q1013 RMK 1ST007 6CU010 7CU020 A2991
RJFU 190201Z 21019G31KT 8000 -SHRA FEW007 BKN010 BKN020 19/18 Q1012 RMK 1ST007 6CU010 7CU020 A2990
RJFU 190200Z 21018KT 8000 -SHRA FEW007 BKN010 BKN020 19/18 Q1012
RJFU 190143Z 18011KT 9000 -SHRA FEW007 BKN010 BKN025 18/17 Q1012 RMK 1ST007 5CU010 6CU025 A2991
RJFU 190107Z 11014KT 6000 -SHRA FEW007 SCT010 BKN020 13/13 Q1013 RMK 1ST007 4CU010 6CU020 A2992
RJFU 190100Z 12014KT 4500 -SHRA BR FEW007 BKN010 BKN020 13/13 Q1013
RJFU 190047Z 14012KT 4000 R32/0750VP1800D SHRA BR FEW005 BKN010 BKN020 12/12 Q1014 RMK 1ST005 6CU010 7CU020 A2995
RJFU 190040Z 14012KT 2000 R32/1400VP1800D +SHRA BR FEW005 BKN010 BKN025 12/12 Q1013 RMK 1ST005 6CU010 7CU025 A2994
RJFU 190038Z 14012KT 3000 SHRA BR FEW005 BKN010 BKN025 12/12 Q1013 RMK 1ST005 6CU010 7CU025 A2994
RJFU 190028Z 14017KT 4000 -SHRA BR FEW005 BKN015 BKN030 12/11 Q1013 RMK 1ST005 5CU015 7CU030 A2993
RJFU 190000Z 14018KT 9000 -SHRA FEW005 SCT015 BKN030 12/12 Q1013
RJFU 182346Z 13016KT 6000 -SHRA FEW005 SCT015 BKN035 12/12 Q1013 RMK 1ST005 3CU015 7CU035 A2993
RJFU 182337Z 13013KT 4500 SHRA BR FEW005 BKN015 BKN035 12/11 Q1013 RMK 1ST005 5CU015 7CU035 A2993
RJFU 182334Z 12013KT 4000 -SHRA BR FEW005 BKN015 BKN035 12/11 Q1013 RMK 1ST005 5CU015 7CU035 A2993
RJFU 182300Z 14012KT 9000 -SHRA FEW005 SCT015 BKN035 12/11 Q1013
RJFU 182234Z 15015KT 5000 -RA BR FEW005 SCT010 BKN040 10/10 Q1014 RMK 1ST005 3CU010 7SC040 A2995
RJFU 182225Z 14019KT 4500 RA BR FEW005 SCT010 BKN040 10/09 Q1014 RMK 1ST005 4CU010 7SC040 A2995
RJFU 182219Z 15016KT 4000 -RA BR FEW005 SCT010 BKN045 09/09 Q1014 RMK 1ST005 3CU010 7SC045 A2995
RJFU 182200Z 16018KT 6000 FEW005 SCT010 BKN045 09/09 Q1014
RJFU 182110Z 12014KT 6000 -SHRA FEW005 SCT008 BKN015 10/10 Q1015 RMK 1ST005 4ST008 7CU015 A3000
RJFU 181200Z 15005KT 9999 FEW050 BKN060 09/03 Q1023
RJFU 181100Z 14007KT CAVOK 10/03 Q1023
RJFU 181000Z VRB02KT CAVOK 10/04 Q1023
RJFU 180900Z VRB02KT CAVOK 10/03 Q1023
RJFU 180800Z 01003KT CAVOK 10/03 Q1022
RJFU 180700Z VRB02KT CAVOK 10/02 Q1022